Latest Weather Observations for North West 10 Beacon

IDQ60901

Issued at 12:01 pm EST Thursday 30 November 2023 (issued every 10 minutes, with the page automatically refreshed every 10 minutes)

About weather observations | Map of Brisbane area stations | Latest observations for Brisbane area | Other Formats
Station Details ID: 200896 Name: NORTH WEST 10 BEACON Lat: -27.00 Lon: 153.24 Height: 7.0 m
Data from the previous 72 hours. | See also: Recent months for locations in Queensland
Date/Time
EST
Temp
°C
App
Temp
°C
Dew
Point
°C
Rel
Hum
%
Delta-T
°C
Wind Press
QNH
hPa
Press
MSL
hPa
Rain since
9am
mm
Dir  Spd
km/h
Gust
km/h
Spd
kts
Gust
kts
30/12:00pm - - - - - ESE 13 15 7 8 - - -
30/11:30am - - - - - E 11 13 6 7 - - -
30/11:00am - - - - - NW 2 6 1 3 - - -
30/10:30am - - - - - WNW 2 4 1 2 - - -
30/10:00am - - - - - W 7 11 4 6 - - -
30/09:30am - - - - - WSW 17 20 9 11 - - -
30/09:00am - - - - - WSW 19 24 10 13 - - -
30/08:30am - - - - - W 17 20 9 11 - - -
30/08:00am - - - - - W 20 24 11 13 - - -
30/07:30am - - - - - W 24 28 13 15 - - -
30/07:00am - - - - - W 15 24 8 13 - - -
30/06:30am - - - - - NW 17 19 9 10 - - -
30/06:00am - - - - - WNW 15 17 8 9 - - -
30/05:30am - - - - - WNW 11 15 6 8 - - -
30/05:00am - - - - - W 7 11 4 6 - - -
30/04:30am - - - - - NW 15 17 8 9 - - -
30/04:00am - - - - - NNW 17 20 9 11 - - -
30/03:30am - - - - - NNW 9 11 5 6 - - -
30/03:00am - - - - - NW 13 15 7 8 - - -
30/02:30am - - - - - NNW 11 13 6 7 - - -
30/02:00am - - - - - NNW 15 17 8 9 - - -
30/01:30am - - - - - NW 15 17 8 9 - - -
30/01:00am - - - - - NW 17 19 9 10 - - -
30/12:30am - - - - - NNW 20 24 11 13 - - -
30/12:00am - - - - - NNW 28 32 15 17 - - -
 
Date/Time
EST
Temp
°C
App
Temp
°C
Dew
Point
°C
Rel
Hum
%
Delta-T
°C
Wind Press
QNH
hPa
Press
MSL
hPa
Rain since
9am
mm
Dir  Spd
km/h
Gust
km/h
Spd
kts
Gust
kts
29/11:30pm - - - - - N 28 32 15 17 - - -
29/11:00pm - - - - - N 26 33 14 18 - - -
29/10:30pm - - - - - N 28 32 15 17 - - -
29/10:00pm - - - - - N 26 30 14 16 - - -
29/09:30pm - - - - - NNE 28 32 15 17 - - -
29/09:00pm - - - - - NNE 26 30 14 16 - - -
29/08:30pm - - - - - NNE 24 28 13 15 - - -
29/08:00pm - - - - - NNE 19 24 10 13 - - -
29/07:30pm - - - - - NNE 22 30 12 16 - - -
29/07:00pm - - - - - NNE 11 19 6 10 - - -
29/06:51pm - - - - - W 30 69 16 37 - - -
29/06:45pm - - - - - WNW 39 69 21 37 - - -
29/06:44pm - - - - - NW 37 69 20 37 - - -
29/06:41pm - - - - - N 28 67 15 36 - - -
29/06:30pm - - - - - NNE 28 32 15 17 - - -
29/06:00pm - - - - - N 30 35 16 19 - - -
29/05:30pm - - - - - N 30 35 16 19 - - -
29/05:00pm - - - - - N 28 33 15 18 - - -
29/04:30pm - - - - - NNE 32 37 17 20 - - -
29/04:00pm - - - - - NNE 26 32 14 17 - - -
29/03:30pm - - - - - NNE 22 28 12 15 - - -
29/03:00pm - - - - - NNE 20 24 11 13 - - -
29/02:30pm - - - - - NNE 20 24 11 13 - - -
29/02:00pm - - - - - NNE 20 24 11 13 - - -
29/01:30pm - - - - - NNE 20 22 11 12 - - -
29/01:00pm - - - - - NNE 19 22 10 12 - - -
29/12:30pm - - - - - NNE 22 26 12 14 - - -
29/12:00pm - - - - - N 19 22 10 12 - - -
29/11:30am - - - - - N 17 20 9 11 - - -
29/11:00am - - - - - NNE 13 15 7 8 - - -
29/10:30am - - - - - NNE 9 11 5 6 - - -
29/10:00am - - - - - N 13 13 7 7 - - -
29/09:30am - - - - - WNW 9 11 5 6 - - -
29/09:00am - - - - - NW 2 4 1 2 - - -
29/08:30am - - - - - WSW 11 13 6 7 - - -
29/08:00am - - - - - SW 6 9 3 5 - - -
29/07:30am - - - - - SSW 13 17 7 9 - - -
29/07:00am - - - - - SSW 15 19 8 10 - - -
29/06:30am - - - - - SW 24 30 13 16 - - -
29/06:00am - - - - - SW 26 32 14 17 - - -
29/05:30am - - - - - WSW 22 30 12 16 - - -
29/05:00am - - - - - W 22 26 12 14 - - -
29/04:30am - - - - - WNW 7 13 4 7 - - -
29/04:00am - - - - - NNW 7 9 4 5 - - -
29/03:30am - - - - - NNE 7 9 4 5 - - -
29/03:00am - - - - - NE 11 15 6 8 - - -
29/02:30am - - - - - ENE 19 20 10 11 - - -
29/02:00am - - - - - NE 26 32 14 17 - - -
29/01:30am - - - - - ENE 22 26 12 14 - - -
29/01:00am - - - - - ENE 24 28 13 15 - - -
29/12:30am - - - - - E 24 30 13 16 - - -
29/12:00am - - - - - E 26 32 14 17 - - -
 
Date/Time
EST
Temp
°C
App
Temp
°C
Dew
Point
°C
Rel
Hum
%
Delta-T
°C
Wind Press
QNH
hPa
Press
MSL
hPa
Rain since
9am
mm
Dir  Spd
km/h
Gust
km/h
Spd
kts
Gust
kts
28/11:30pm - - - - - E 30 37 16 20 - - -
28/11:00pm - - - - - ENE 33 37 18 20 - - -
28/10:30pm - - - - - E 30 35 16 19 - - -
28/10:00pm - - - - - E 28 33 15 18 - - -
28/09:30pm - - - - - ENE 32 37 17 20 - - -
28/09:00pm - - - - - ENE 28 33 15 18 - - -
28/08:30pm - - - - - ENE 26 32 14 17 - - -
28/08:00pm - - - - - ENE 28 32 15 17 - - -
28/07:30pm - - - - - ENE 26 28 14 15 - - -
28/07:00pm - - - - - E 26 30 14 16 - - -
28/06:30pm - - - - - ENE 28 30 15 16 - - -
28/06:00pm - - - - - ENE 26 32 14 17 - - -
28/05:30pm - - - - - ENE 28 33 15 18 - - -
28/05:00pm - - - - - NE 28 32 15 17 - - -
28/04:30pm - - - - - NE 26 30 14 16 - - -
28/04:00pm - - - - - NE 24 28 13 15 - - -
28/03:30pm - - - - - ENE 22 24 12 13 - - -
28/03:00pm - - - - - ENE 22 28 12 15 - - -
28/02:30pm - - - - - NE 20 24 11 13 - - -
28/02:00pm - - - - - NE 22 28 12 15 - - -
28/01:30pm - - - - - NE 22 28 12 15 - - -
28/01:00pm - - - - - NE 20 24 11 13 - - -
28/12:30pm - - - - - NNE 22 28 12 15 - - -
28/12:00pm - - - - - NNE 22 26 12 14 - - -
28/11:30am - - - - - NE 17 20 9 11 - - -
28/11:00am - - - - - NNE 26 32 14 17 - - -
28/10:30am - - - - - SSE 6 6 3 3 - - -
28/10:00am - - - - - S 4 4 2 2 - - -
28/09:30am - - - - - CALM 0 2 0 1 - - -
28/09:00am - - - - - CALM 0 0 0 0 - - -
28/08:30am - - - - - CALM 0 0 0 0 - - -
28/08:00am - - - - - CALM 0 0 0 0 - - -
28/07:30am - - - - - CALM 0 0 0 0 - - -
28/07:00am - - - - - W 2 2 1 1 - - -
28/06:30am - - - - - NW 2 4 1 2 - - -
28/06:00am - - - - - WNW 2 4 1 2 - - -
28/05:30am - - - - - WNW 6 7 3 4 - - -
28/05:00am - - - - - NW 9 11 5 6 - - -
28/04:30am - - - - - NW 9 11 5 6 - - -
28/04:00am - - - - - NW 13 15 7 8 - - -
28/03:30am - - - - - NNW 17 20 9 11 - - -
28/03:00am - - - - - NNW 19 22 10 12 - - -
28/02:30am - - - - - NNW 19 20 10 11 - - -
28/02:00am - - - - - N 17 22 9 12 - - -
28/01:30am - - - - - N 17 20 9 11 - - -
28/01:00am - - - - - N 15 19 8 10 - - -
28/12:30am - - - - - N 19 24 10 13 - - -
28/12:00am - - - - - N 20 26 11 14 - - -
 
Date/Time
EST
Temp
°C
App
Temp
°C
Dew
Point
°C
Rel
Hum
%
Delta-T
°C
Wind Press
QNH
hPa
Press
MSL
hPa
Rain since
9am
mm
Dir  Spd
km/h
Gust
km/h
Spd
kts
Gust
kts
27/11:30pm - - - - - N 19 22 10 12 - - -
27/11:00pm - - - - - N 17 20 9 11 - - -
27/10:30pm - - - - - N 15 19 8 10 - - -
27/10:00pm - - - - - N 17 20 9 11 - - -
27/09:30pm - - - - - N 15 17 8 9 - - -
27/09:00pm - - - - - N 17 20 9 11 - - -
27/08:30pm - - - - - N 19 20 10 11 - - -
27/08:00pm - - - - - N 20 24 11 13 - - -
27/07:30pm - - - - - N 22 26 12 14 - - -
27/07:00pm - - - - - N 24 28 13 15 - - -
27/06:30pm - - - - - N 26 30 14 16 - - -
27/06:00pm - - - - - N 28 33 15 18 - - -
27/05:30pm - - - - - N 28 33 15 18 - - -
27/05:00pm - - - - - N 28 32 15 17 - - -
27/04:30pm - - - - - NNE 28 33 15 18 - - -
27/04:00pm - - - - - NNE 28 33 15 18 - - -
27/03:30pm - - - - - NNE 28 33 15 18 - - -
27/03:00pm - - - - - NNE 28 32 15 17 - - -
27/02:30pm - - - - - NNE 28 32 15 17 - - -
27/02:00pm - - - - - NNE 26 32 14 17 - - -
27/01:30pm - - - - - NNE 26 32 14 17 - - -
27/01:00pm - - - - - NNE 24 28 13 15 - - -
27/12:30pm - - - - - NNE 22 26 12 14 - - -

Latest Capital City Observations: Canberra | Sydney | Melbourne | Brisbane | Adelaide | Perth | Hobart | Darwin

Other formats

Comma delimited format used in spreadsheet applications
http://www.bom.gov.au/fwo/IDQ60901/IDQ60901.99496.axf

JavaScript Object Notation format (JSON) in row-major order
http://www.bom.gov.au/fwo/IDQ60901/IDQ60901.99496.json

Data quality

Most of these data are generated automatically and are frequently updated. Quality checks on data are not normally performed. It is possible for incorrect values to appear. Refer to information at About Latest Weather Observations and please check the disclaimer before using these data.